EZY115 EGPH-ENBR
Flight info
| Callsign | EZY115 |
|---|---|
| Flight time | 1h 11m |
| Altitude | 35000 |
| Route | GRICE P600 ASNUD DCT BEREP DCT MODNI |
| Aircraft | A320/M-SDE3FGHIRWY/LB1 |
Departure
| Time | 2026-04-21 21:40 |
|---|---|
| Airport | Edinburgh Airport (EGPH) |
Arrival
| Time | 2026-04-21 22:51 |
|---|---|
| Airport | Bergen Airport, Flesland (ENBR) |
| Time | Latitude | Longitude | Altitude | Speed | Heading |
|---|---|---|---|---|---|
| 2026-04-21 20:41 | 55.94658 | -3.36613 | 107 ft | 0 kts | 89° |
| 2026-04-21 21:27 | 55.94658 | -3.36617 | 107 ft | 2 kts | 89° |
| 2026-04-21 21:28 | 55.94658 | -3.36648 | 106 ft | 3 kts | 89° |
| 2026-04-21 21:28 | 55.94658 | -3.36679 | 106 ft | 2 kts | 86° |
| 2026-04-21 21:28 | 55.94653 | -3.36739 | 105 ft | 2 kts | 56° |
| 2026-04-21 21:29 | 55.94640 | -3.36761 | 106 ft | 3 kts | 19° |
| 2026-04-21 21:29 | 55.94637 | -3.36763 | 105 ft | 0 kts | 13° |
| 2026-04-21 21:34 | 55.94638 | -3.36763 | 107 ft | 1 kts | 13° |
| 2026-04-21 21:34 | 55.94701 | -3.36742 | 107 ft | 13 kts | 5° |
| 2026-04-21 21:34 | 55.94786 | -3.36767 | 108 ft | 12 kts | 356° |
| 2026-04-21 21:34 | 55.94854 | -3.36776 | 109 ft | 6 kts | 355° |
| 2026-04-21 21:35 | 55.94908 | -3.36816 | 110 ft | 12 kts | 329° |
| 2026-04-21 21:35 | 55.94916 | -3.36918 | 108 ft | 9 kts | 238° |
| 2026-04-21 21:35 | 55.94851 | -3.37110 | 109 ft | 29 kts | 239° |
| 2026-04-21 21:35 | 55.94750 | -3.37416 | 114 ft | 27 kts | 237° |
| 2026-04-21 21:36 | 55.94660 | -3.37674 | 113 ft | 22 kts | 239° |
| 2026-04-21 21:36 | 55.94582 | -3.37898 | 115 ft | 20 kts | 238° |
| 2026-04-21 21:36 | 55.94514 | -3.38108 | 114 ft | 20 kts | 240° |
| 2026-04-21 21:36 | 55.94424 | -3.38371 | 117 ft | 28 kts | 239° |
| 2026-04-21 21:37 | 55.94330 | -3.38651 | 120 ft | 24 kts | 238° |
| 2026-04-21 21:37 | 55.94288 | -3.38838 | 124 ft | 12 kts | 290° |
| 2026-04-21 21:37 | 55.94346 | -3.38931 | 123 ft | 14 kts | 329° |
| 2026-04-21 21:37 | 55.94438 | -3.38896 | 121 ft | 17 kts | 54° |
| 2026-04-21 21:38 | 55.94457 | -3.38846 | 121 ft | 6 kts | 56° |
| 2026-04-21 21:38 | 55.94461 | -3.38837 | 121 ft | 0 kts | 56° |
| 2026-04-21 21:39 | 55.94463 | -3.38831 | 120 ft | 3 kts | 57° |
| 2026-04-21 21:39 | 55.94575 | -3.38496 | 117 ft | 67 kts | 58° |
| 2026-04-21 21:39 | 55.94925 | -3.37471 | 113 ft | 126 kts | 59° |
| 2026-04-21 21:40 | 55.95447 | -3.35889 | 218 ft | 165 kts | 60° |
| 2026-04-21 21:40 | 55.96045 | -3.33928 | 524 ft | 191 kts | 59° |
| 2026-04-21 21:40 | 55.96924 | -3.32122 | 1339 ft | 192 kts | 44° |
| 2026-04-21 21:40 | 55.97937 | -3.30601 | 2271 ft | 191 kts | 42° |
| 2026-04-21 21:41 | 55.99007 | -3.29062 | 2847 ft | 205 kts | 42° |
| 2026-04-21 21:41 | 56.00174 | -3.27435 | 3383 ft | 220 kts | 34° |
| 2026-04-21 21:41 | 56.01637 | -3.26455 | 4075 ft | 234 kts | 14° |
| 2026-04-21 21:41 | 56.03334 | -3.26503 | 4627 ft | 256 kts | 351° |
| 2026-04-21 21:42 | 56.04978 | -3.27869 | 5301 ft | 273 kts | 324° |
| 2026-04-21 21:42 | 56.06227 | -3.30531 | 5867 ft | 295 kts | 297° |
| 2026-04-21 21:42 | 56.06772 | -3.34272 | 5989 ft | 327 kts | 278° |
| 2026-04-21 21:42 | 56.07073 | -3.38512 | 6009 ft | 358 kts | 277° |
| 2026-04-21 21:43 | 56.07350 | -3.43120 | 6014 ft | 385 kts | 276° |
| 2026-04-21 21:43 | 56.07721 | -3.48026 | 6150 ft | 403 kts | 281° |
| 2026-04-21 21:43 | 56.08221 | -3.52785 | 7244 ft | 388 kts | 281° |
| 2026-04-21 21:43 | 56.08731 | -3.57511 | 8027 ft | 390 kts | 284° |
| 2026-04-21 21:44 | 56.09821 | -3.62067 | 8185 ft | 404 kts | 307° |
| 2026-04-21 21:44 | 56.11835 | -3.65386 | 9198 ft | 386 kts | 334° |
| 2026-04-21 21:44 | 56.14285 | -3.66771 | 10643 ft | 358 kts | 356° |
| 2026-04-21 21:44 | 56.16734 | -3.67084 | 11731 ft | 351 kts | 356° |
| 2026-04-21 21:45 | 56.19167 | -3.67582 | 12424 ft | 352 kts | 4° |
| 2026-04-21 21:45 | 56.21540 | -3.66720 | 13136 ft | 349 kts | 24° |
| 2026-04-21 21:45 | 56.23697 | -3.64723 | 13762 ft | 350 kts | 36° |
| 2026-04-21 21:45 | 56.25640 | -3.62166 | 14383 ft | 352 kts | 41° |
| 2026-04-21 21:46 | 56.27535 | -3.59326 | 14949 ft | 356 kts | 42° |
| 2026-04-21 21:46 | 56.29439 | -3.56438 | 15522 ft | 359 kts | 41° |
| 2026-04-21 21:46 | 56.31394 | -3.53596 | 16078 ft | 363 kts | 40° |
| 2026-04-21 21:46 | 56.33413 | -3.50813 | 16643 ft | 367 kts | 39° |
| 2026-04-21 21:47 | 56.35482 | -3.48077 | 17178 ft | 371 kts | 38° |
| 2026-04-21 21:47 | 56.37594 | -3.45362 | 17727 ft | 374 kts | 37° |
| 2026-04-21 21:47 | 56.39732 | -3.42636 | 18283 ft | 378 kts | 37° |
| 2026-04-21 21:47 | 56.41887 | -3.39885 | 18829 ft | 381 kts | 37° |
| 2026-04-21 21:48 | 56.44060 | -3.37091 | 19300 ft | 385 kts | 37° |
| 2026-04-21 21:48 | 56.46264 | -3.34291 | 19793 ft | 388 kts | 36° |
| 2026-04-21 21:48 | 56.48469 | -3.31555 | 20288 ft | 390 kts | 36° |
| 2026-04-21 21:48 | 56.50735 | -3.28770 | 20764 ft | 393 kts | 36° |
| 2026-04-21 21:49 | 56.53006 | -3.25984 | 21258 ft | 396 kts | 36° |
| 2026-04-21 21:49 | 56.55290 | -3.23175 | 21734 ft | 399 kts | 36° |
| 2026-04-21 21:49 | 56.57592 | -3.20338 | 22192 ft | 401 kts | 36° |
| 2026-04-21 21:49 | 56.59910 | -3.17469 | 22644 ft | 404 kts | 36° |
| 2026-04-21 21:50 | 56.62231 | -3.14573 | 23083 ft | 406 kts | 36° |
| 2026-04-21 21:50 | 56.64567 | -3.11650 | 23526 ft | 409 kts | 36° |
| 2026-04-21 21:50 | 56.66920 | -3.08700 | 23942 ft | 411 kts | 36° |
| 2026-04-21 21:50 | 56.69242 | -3.05644 | 24312 ft | 413 kts | 41° |
| 2026-04-21 21:51 | 56.71289 | -3.02100 | 24654 ft | 414 kts | 47° |
| 2026-04-21 21:51 | 56.73309 | -2.98322 | 24978 ft | 416 kts | 47° |
| 2026-04-21 21:51 | 56.75339 | -2.94545 | 25300 ft | 418 kts | 47° |
| 2026-04-21 21:51 | 56.77385 | -2.90747 | 25622 ft | 420 kts | 47° |
| 2026-04-21 21:52 | 56.79441 | -2.86934 | 25938 ft | 422 kts | 47° |
| 2026-04-21 21:52 | 56.81507 | -2.83096 | 26238 ft | 424 kts | 47° |
| 2026-04-21 21:52 | 56.83577 | -2.79235 | 26548 ft | 426 kts | 47° |
| 2026-04-21 21:52 | 56.85656 | -2.75348 | 26840 ft | 428 kts | 47° |
| 2026-04-21 21:53 | 56.87742 | -2.71443 | 27137 ft | 430 kts | 47° |
| 2026-04-21 21:53 | 56.89842 | -2.67500 | 27417 ft | 432 kts | 47° |
| 2026-04-21 21:53 | 56.91945 | -2.63546 | 27694 ft | 434 kts | 47° |
| 2026-04-21 21:53 | 56.93334 | -2.60929 | 28020 ft | 432 kts | 47° |
| 2026-04-21 21:54 | 56.95417 | -2.56998 | 28563 ft | 427 kts | 47° |
| 2026-04-21 21:54 | 56.98138 | -2.51852 | 29302 ft | 422 kts | 47° |
| 2026-04-21 21:54 | 57.00175 | -2.47995 | 29873 ft | 417 kts | 47° |
| 2026-04-21 21:54 | 57.01535 | -2.45419 | 30267 ft | 414 kts | 47° |
| 2026-04-21 21:55 | 57.03524 | -2.41648 | 30822 ft | 409 kts | 47° |
| 2026-04-21 21:55 | 57.05493 | -2.37906 | 31318 ft | 404 kts | 47° |
| 2026-04-21 21:55 | 57.07415 | -2.34242 | 31818 ft | 399 kts | 47° |
| 2026-04-21 21:55 | 57.09330 | -2.30584 | 32308 ft | 395 kts | 47° |
| 2026-04-21 21:56 | 57.11229 | -2.26953 | 32700 ft | 393 kts | 47° |
| 2026-04-21 21:56 | 57.13120 | -2.23328 | 33099 ft | 391 kts | 47° |
| 2026-04-21 21:56 | 57.14996 | -2.19730 | 33501 ft | 388 kts | 47° |
| 2026-04-21 21:56 | 57.16860 | -2.16150 | 33914 ft | 385 kts | 47° |
| 2026-04-21 21:57 | 57.18682 | -2.12651 | 34331 ft | 381 kts | 47° |
| 2026-04-21 21:57 | 57.20520 | -2.09111 | 34592 ft | 382 kts | 47° |
| 2026-04-21 21:57 | 57.22358 | -2.05562 | 34748 ft | 384 kts | 47° |
| 2026-04-21 21:58 | 57.26123 | -1.98265 | 34644 ft | 400 kts | 47° |
| 2026-04-21 21:58 | 57.30018 | -1.90701 | 34647 ft | 412 kts | 47° |
| 2026-04-21 21:59 | 57.34021 | -1.82899 | 34642 ft | 424 kts | 47° |
| 2026-04-21 21:59 | 57.38137 | -1.74871 | 34747 ft | 431 kts | 47° |
| 2026-04-21 21:59 | 57.40203 | -1.70838 | 34978 ft | 430 kts | 47° |
| 2026-04-21 22:00 | 57.42266 | -1.66805 | 35210 ft | 429 kts | 47° |
| 2026-04-21 22:00 | 57.44287 | -1.62839 | 35439 ft | 428 kts | 47° |
| 2026-04-21 22:00 | 57.46327 | -1.58817 | 35553 ft | 430 kts | 47° |
| 2026-04-21 22:01 | 57.50473 | -1.50622 | 35575 ft | 438 kts | 48° |
| 2026-04-21 22:01 | 57.54689 | -1.42272 | 35578 ft | 447 kts | 48° |
| 2026-04-21 22:02 | 57.58972 | -1.33752 | 35576 ft | 453 kts | 48° |
| 2026-04-21 22:02 | 57.63305 | -1.25100 | 35575 ft | 458 kts | 48° |
| 2026-04-21 22:03 | 57.67651 | -1.16405 | 35576 ft | 462 kts | 48° |
| 2026-04-21 22:03 | 57.72037 | -1.07583 | 35584 ft | 464 kts | 48° |
| 2026-04-21 22:04 | 57.76435 | -0.98703 | 35575 ft | 466 kts | 48° |
| 2026-04-21 22:04 | 57.80845 | -0.89768 | 35576 ft | 467 kts | 49° |
| 2026-04-21 22:05 | 57.85263 | -0.80794 | 35568 ft | 468 kts | 49° |
| 2026-04-21 22:05 | 57.89672 | -0.71786 | 35577 ft | 468 kts | 49° |
| 2026-04-21 22:06 | 57.94083 | -0.62733 | 35568 ft | 469 kts | 49° |
| 2026-04-21 22:06 | 57.98464 | -0.53735 | 35574 ft | 469 kts | 49° |
| 2026-04-21 22:07 | 58.02866 | -0.44634 | 35571 ft | 469 kts | 49° |
| 2026-04-21 22:07 | 58.07267 | -0.35492 | 35566 ft | 469 kts | 49° |
| 2026-04-21 22:08 | 58.11663 | -0.26351 | 35577 ft | 470 kts | 49° |
| 2026-04-21 22:08 | 58.16051 | -0.17177 | 35577 ft | 470 kts | 49° |
| 2026-04-21 22:09 | 58.20403 | -0.08023 | 35580 ft | 470 kts | 49° |
| 2026-04-21 22:09 | 58.24790 | 0.01204 | 35567 ft | 470 kts | 49° |
| 2026-04-21 22:10 | 58.29173 | 0.10461 | 35573 ft | 470 kts | 49° |
| 2026-04-21 22:10 | 58.33539 | 0.19726 | 35577 ft | 470 kts | 49° |
| 2026-04-21 22:11 | 58.37870 | 0.28968 | 35561 ft | 471 kts | 50° |
| 2026-04-21 22:11 | 58.42226 | 0.38316 | 35571 ft | 471 kts | 50° |
| 2026-04-21 22:12 | 58.46572 | 0.47670 | 35572 ft | 471 kts | 50° |
| 2026-04-21 22:12 | 58.50920 | 0.57044 | 35562 ft | 471 kts | 50° |
| 2026-04-21 22:13 | 58.55261 | 0.66442 | 35560 ft | 471 kts | 50° |
| 2026-04-21 22:13 | 58.59575 | 0.75823 | 35561 ft | 471 kts | 50° |
| 2026-04-21 22:14 | 58.63904 | 0.85293 | 35564 ft | 471 kts | 50° |
| 2026-04-21 22:14 | 58.68222 | 0.94803 | 35564 ft | 471 kts | 50° |
| 2026-04-21 22:15 | 58.72537 | 1.04308 | 35567 ft | 472 kts | 50° |
| 2026-04-21 22:15 | 58.76825 | 1.13775 | 35552 ft | 472 kts | 50° |
| 2026-04-21 22:16 | 58.81134 | 1.23322 | 35557 ft | 472 kts | 50° |
| 2026-04-21 22:16 | 58.85443 | 1.32933 | 35553 ft | 472 kts | 50° |
| 2026-04-21 22:17 | 58.89724 | 1.42543 | 35552 ft | 469 kts | 51° |
| 2026-04-21 22:17 | 58.91805 | 1.47236 | 35543 ft | 449 kts | 51° |
| 2026-04-21 22:17 | 58.93817 | 1.51770 | 35565 ft | 443 kts | 51° |
| 2026-04-21 22:18 | 58.97811 | 1.60769 | 35544 ft | 443 kts | 51° |
| 2026-04-21 22:18 | 59.01814 | 1.69837 | 35557 ft | 442 kts | 51° |
| 2026-04-21 22:19 | 59.05830 | 1.78888 | 35549 ft | 442 kts | 50° |
| 2026-04-21 22:19 | 59.09976 | 1.87746 | 35546 ft | 442 kts | 49° |
| 2026-04-21 22:20 | 59.14131 | 1.96505 | 35556 ft | 442 kts | 49° |
| 2026-04-21 22:20 | 59.18265 | 2.05376 | 35551 ft | 442 kts | 49° |
| 2026-04-21 22:21 | 59.22364 | 2.14286 | 35487 ft | 440 kts | 50° |
| 2026-04-21 22:21 | 59.24404 | 2.18738 | 35011 ft | 440 kts | 50° |
| 2026-04-21 22:21 | 59.26441 | 2.23191 | 34444 ft | 436 kts | 50° |
| 2026-04-21 22:21 | 59.28429 | 2.27538 | 34298 ft | 422 kts | 50° |
| 2026-04-21 22:22 | 59.30354 | 2.31756 | 34153 ft | 408 kts | 50° |
| 2026-04-21 22:22 | 59.32211 | 2.35825 | 34009 ft | 395 kts | 50° |
| 2026-04-21 22:22 | 59.34016 | 2.39775 | 33826 ft | 383 kts | 50° |
| 2026-04-21 22:22 | 59.35763 | 2.43602 | 33446 ft | 378 kts | 50° |
| 2026-04-21 22:23 | 59.37503 | 2.47428 | 33012 ft | 374 kts | 50° |
| 2026-04-21 22:23 | 59.39221 | 2.51217 | 32544 ft | 371 kts | 50° |
| 2026-04-21 22:23 | 59.40927 | 2.55000 | 32076 ft | 369 kts | 50° |
| 2026-04-21 22:23 | 59.42621 | 2.58763 | 31614 ft | 367 kts | 50° |
| 2026-04-21 22:24 | 59.44320 | 2.62531 | 31160 ft | 364 kts | 50° |
| 2026-04-21 22:24 | 59.45994 | 2.66250 | 30714 ft | 362 kts | 50° |
| 2026-04-21 22:24 | 59.47657 | 2.69956 | 30210 ft | 361 kts | 50° |
| 2026-04-21 22:24 | 59.49294 | 2.73604 | 29721 ft | 358 kts | 50° |
| 2026-04-21 22:25 | 59.50934 | 2.77262 | 29259 ft | 354 kts | 50° |
| 2026-04-21 22:25 | 59.52558 | 2.80888 | 28815 ft | 351 kts | 50° |
| 2026-04-21 22:25 | 59.54165 | 2.84483 | 28355 ft | 347 kts | 51° |
| 2026-04-21 22:25 | 59.55752 | 2.88044 | 27924 ft | 344 kts | 51° |
| 2026-04-21 22:26 | 59.57324 | 2.91577 | 27488 ft | 341 kts | 51° |
| 2026-04-21 22:26 | 59.58881 | 2.95076 | 27079 ft | 337 kts | 51° |
| 2026-04-21 22:26 | 59.60422 | 2.98544 | 26659 ft | 335 kts | 51° |
| 2026-04-21 22:26 | 59.61948 | 3.01984 | 26244 ft | 332 kts | 51° |
| 2026-04-21 22:27 | 59.63442 | 3.05363 | 25848 ft | 329 kts | 51° |
| 2026-04-21 22:27 | 59.64938 | 3.08754 | 25445 ft | 326 kts | 51° |
| 2026-04-21 22:27 | 59.66428 | 3.12133 | 25052 ft | 323 kts | 51° |
| 2026-04-21 22:27 | 59.67902 | 3.15473 | 24652 ft | 321 kts | 51° |
| 2026-04-21 22:28 | 59.69358 | 3.18777 | 24287 ft | 318 kts | 51° |
| 2026-04-21 22:28 | 59.70804 | 3.22066 | 23879 ft | 315 kts | 51° |
| 2026-04-21 22:28 | 59.72233 | 3.25326 | 23436 ft | 313 kts | 51° |
| 2026-04-21 22:28 | 59.73656 | 3.28578 | 23030 ft | 310 kts | 51° |
| 2026-04-21 22:29 | 59.75069 | 3.31809 | 22619 ft | 308 kts | 51° |
| 2026-04-21 22:29 | 59.76445 | 3.34962 | 22242 ft | 305 kts | 51° |
| 2026-04-21 22:29 | 59.77827 | 3.38127 | 21782 ft | 304 kts | 51° |
| 2026-04-21 22:29 | 59.79220 | 3.41326 | 21270 ft | 307 kts | 51° |
| 2026-04-21 22:30 | 59.80625 | 3.44559 | 20755 ft | 310 kts | 51° |
| 2026-04-21 22:30 | 59.82040 | 3.47817 | 20247 ft | 312 kts | 51° |
| 2026-04-21 22:30 | 59.83465 | 3.51102 | 19750 ft | 315 kts | 51° |
| 2026-04-21 22:30 | 59.84902 | 3.54417 | 19258 ft | 317 kts | 51° |
| 2026-04-21 22:31 | 59.86332 | 3.57721 | 18771 ft | 319 kts | 51° |
| 2026-04-21 22:31 | 59.87787 | 3.61084 | 18206 ft | 321 kts | 51° |
| 2026-04-21 22:31 | 59.89247 | 3.64468 | 17675 ft | 323 kts | 51° |
| 2026-04-21 22:31 | 59.90713 | 3.67876 | 17138 ft | 325 kts | 51° |
| 2026-04-21 22:32 | 59.92190 | 3.71311 | 16612 ft | 326 kts | 51° |
| 2026-04-21 22:32 | 59.93674 | 3.74768 | 16095 ft | 328 kts | 51° |
| 2026-04-21 22:32 | 59.95141 | 3.78188 | 15595 ft | 329 kts | 51° |
| 2026-04-21 22:32 | 59.96630 | 3.81668 | 15091 ft | 330 kts | 51° |
| 2026-04-21 22:33 | 59.98126 | 3.85173 | 14599 ft | 331 kts | 51° |
| 2026-04-21 22:33 | 59.99620 | 3.88679 | 14089 ft | 331 kts | 50° |
| 2026-04-21 22:33 | 60.01114 | 3.92180 | 13547 ft | 331 kts | 50° |
| 2026-04-21 22:33 | 60.02605 | 3.95697 | 13009 ft | 331 kts | 52° |
| 2026-04-21 22:34 | 60.03763 | 3.99651 | 12480 ft | 328 kts | 70° |
| 2026-04-21 22:34 | 60.04368 | 4.04041 | 11969 ft | 327 kts | 77° |
| 2026-04-21 22:34 | 60.04890 | 4.08397 | 11465 ft | 326 kts | 77° |
| 2026-04-21 22:34 | 60.05427 | 4.12802 | 10959 ft | 325 kts | 76° |
| 2026-04-21 22:35 | 60.05964 | 4.17176 | 10569 ft | 320 kts | 76° |
| 2026-04-21 22:35 | 60.06484 | 4.21423 | 10470 ft | 306 kts | 76° |
| 2026-04-21 22:35 | 60.06970 | 4.25437 | 10497 ft | 288 kts | 77° |
| 2026-04-21 22:35 | 60.07424 | 4.29232 | 10492 ft | 272 kts | 77° |
| 2026-04-21 22:36 | 60.08263 | 4.36203 | 10311 ft | 248 kts | 76° |
| 2026-04-21 22:36 | 60.08668 | 4.39560 | 9945 ft | 246 kts | 76° |
| 2026-04-21 22:36 | 60.09069 | 4.42892 | 9568 ft | 245 kts | 76° |
| 2026-04-21 22:37 | 60.09459 | 4.46160 | 9221 ft | 243 kts | 76° |
| 2026-04-21 22:37 | 60.09850 | 4.49446 | 8840 ft | 242 kts | 76° |
| 2026-04-21 22:37 | 60.10237 | 4.52720 | 8469 ft | 240 kts | 76° |
| 2026-04-21 22:37 | 60.10619 | 4.55968 | 8109 ft | 238 kts | 76° |
| 2026-04-21 22:38 | 60.11001 | 4.59202 | 7736 ft | 237 kts | 76° |
| 2026-04-21 22:38 | 60.11381 | 4.62400 | 7384 ft | 235 kts | 76° |
| 2026-04-21 22:38 | 60.11691 | 4.65609 | 7025 ft | 234 kts | 84° |
| 2026-04-21 22:38 | 60.11682 | 4.68858 | 6647 ft | 233 kts | 96° |
| 2026-04-21 22:39 | 60.11403 | 4.72054 | 6474 ft | 233 kts | 99° |
| 2026-04-21 22:39 | 60.11108 | 4.75262 | 6476 ft | 234 kts | 99° |
| 2026-04-21 22:39 | 60.10740 | 4.78441 | 6469 ft | 235 kts | 112° |
| 2026-04-21 22:39 | 60.09822 | 4.81102 | 6469 ft | 238 kts | 137° |
| 2026-04-21 22:40 | 60.08392 | 4.82749 | 6472 ft | 240 kts | 163° |
| 2026-04-21 22:40 | 60.06729 | 4.83081 | 6479 ft | 242 kts | 180° |
| 2026-04-21 22:40 | 60.05043 | 4.83114 | 6473 ft | 241 kts | 172° |
| 2026-04-21 22:40 | 60.03417 | 4.83889 | 6471 ft | 240 kts | 158° |
| 2026-04-21 22:41 | 60.01851 | 4.85046 | 6470 ft | 239 kts | 159° |
| 2026-04-21 22:41 | 60.00285 | 4.86176 | 6473 ft | 239 kts | 159° |
| 2026-04-21 22:41 | 59.98803 | 4.87657 | 6440 ft | 238 kts | 143° |
| 2026-04-21 22:41 | 59.97522 | 4.89726 | 6219 ft | 236 kts | 138° |
| 2026-04-21 22:42 | 59.96268 | 4.91815 | 5836 ft | 234 kts | 139° |
| 2026-04-21 22:42 | 59.95040 | 4.93949 | 5570 ft | 233 kts | 131° |
| 2026-04-21 22:42 | 59.94105 | 4.96524 | 5313 ft | 231 kts | 117° |
| 2026-04-21 22:42 | 59.93307 | 4.99306 | 5045 ft | 231 kts | 118° |
| 2026-04-21 22:43 | 59.92495 | 5.02069 | 4790 ft | 230 kts | 119° |
| 2026-04-21 22:43 | 59.91838 | 5.04936 | 4526 ft | 228 kts | 104° |
| 2026-04-21 22:43 | 59.91621 | 5.07024 | 4349 ft | 227 kts | 96° |
| 2026-04-21 22:43 | 59.91418 | 5.10140 | 4090 ft | 225 kts | 88° |
| 2026-04-21 22:44 | 59.91739 | 5.13087 | 3881 ft | 220 kts | 62° |
| 2026-04-21 22:44 | 59.92686 | 5.15469 | 3604 ft | 220 kts | 36° |
| 2026-04-21 22:44 | 59.94053 | 5.16747 | 3340 ft | 219 kts | 10° |
| 2026-04-21 22:44 | 59.95570 | 5.16824 | 3085 ft | 219 kts | 357° |
| 2026-04-21 22:45 | 59.97092 | 5.16673 | 2826 ft | 218 kts | 358° |
| 2026-04-21 22:45 | 59.98606 | 5.16543 | 2590 ft | 217 kts | 358° |
| 2026-04-21 22:45 | 60.00120 | 5.16420 | 2515 ft | 218 kts | 358° |
| 2026-04-21 22:45 | 60.01634 | 5.16298 | 2510 ft | 218 kts | 358° |
| 2026-04-21 22:46 | 60.03148 | 5.16174 | 2511 ft | 218 kts | 358° |
| 2026-04-21 22:46 | 60.04651 | 5.16048 | 2516 ft | 218 kts | 358° |
| 2026-04-21 22:46 | 60.06177 | 5.16238 | 2510 ft | 218 kts | 16° |
| 2026-04-21 22:46 | 60.07523 | 5.17508 | 2512 ft | 218 kts | 37° |
| 2026-04-21 22:47 | 60.08543 | 5.19733 | 2511 ft | 218 kts | 59° |
| 2026-04-21 22:47 | 60.09281 | 5.22398 | 2515 ft | 219 kts | 60° |
| 2026-04-21 22:47 | 60.10049 | 5.25037 | 2508 ft | 217 kts | 52° |
| 2026-04-21 22:47 | 60.11174 | 5.26872 | 2516 ft | 211 kts | 23° |
| 2026-04-21 22:48 | 60.12606 | 5.27387 | 2511 ft | 212 kts | 354° |
| 2026-04-21 22:48 | 60.14065 | 5.26924 | 2507 ft | 213 kts | 351° |
| 2026-04-21 22:48 | 60.15524 | 5.26431 | 2512 ft | 212 kts | 351° |
| 2026-04-21 22:48 | 60.16981 | 5.25945 | 2376 ft | 210 kts | 351° |
| 2026-04-21 22:49 | 60.18393 | 5.25474 | 2145 ft | 202 kts | 351° |
| 2026-04-21 22:49 | 60.19749 | 5.25022 | 1874 ft | 197 kts | 351° |
| 2026-04-21 22:49 | 60.21081 | 5.24577 | 1615 ft | 191 kts | 351° |
| 2026-04-21 22:49 | 60.22362 | 5.24149 | 1357 ft | 182 kts | 351° |
| 2026-04-21 22:50 | 60.23576 | 5.23743 | 1110 ft | 170 kts | 352° |
| 2026-04-21 22:50 | 60.24681 | 5.23374 | 907 ft | 152 kts | 351° |
| 2026-04-21 22:50 | 60.25715 | 5.23028 | 719 ft | 149 kts | 350° |
| 2026-04-21 22:50 | 60.26728 | 5.22689 | 514 ft | 147 kts | 350° |
| 2026-04-21 22:51 | 60.27734 | 5.22355 | 320 ft | 146 kts | 350° |
| 2026-04-21 22:51 | 60.28727 | 5.22018 | 162 ft | 144 kts | 350° |
| 2026-04-21 22:51 | 60.29485 | 5.21765 | 166 ft | 38 kts | 349° |
| 2026-04-21 22:51 | 60.29547 | 5.21745 | 167 ft | 3 kts | 352° |
| 2026-04-21 22:52 | 60.29569 | 5.21738 | 167 ft | 4 kts | 352° |
| 2026-04-21 22:52 | 60.29695 | 5.21719 | 169 ft | 15 kts | 31° |
| 2026-04-21 22:52 | 60.29713 | 5.21823 | 169 ft | 13 kts | 84° |
| 2026-04-21 22:52 | 60.29720 | 5.21959 | 169 ft | 0 kts | 83° |
| 2026-04-21 22:53 | 60.29720 | 5.21961 | 169 ft | 2 kts | 83° |
| 2026-04-21 22:53 | 60.29721 | 5.22095 | 169 ft | 12 kts | 123° |
| 2026-04-21 22:53 | 60.29650 | 5.22148 | 168 ft | 12 kts | 172° |
| 2026-04-21 22:53 | 60.29545 | 5.22186 | 167 ft | 22 kts | 171° |
| 2026-04-21 22:54 | 60.29374 | 5.22248 | 166 ft | 26 kts | 170° |
| 2026-04-21 22:54 | 60.29190 | 5.22312 | 164 ft | 28 kts | 171° |
| 2026-04-21 22:54 | 60.29035 | 5.22404 | 163 ft | 13 kts | 118° |
| 2026-04-21 22:54 | 60.28994 | 5.22515 | 162 ft | 9 kts | 137° |
| 2026-04-21 22:55 | 60.28969 | 5.22566 | 162 ft | 0 kts | 132° |